sensor_id;sensor_type;location;lat;lon;timestamp;pressure;altitude;pressure_sealevel;temperature;humidity
70304;BME280;57712;48.752;11.348;2023-11-21T00:01:25;97049.06;;;7.91;100.00
70304;BME280;57712;48.752;11.348;2023-11-21T00:03:52;97043.47;;;7.74;100.00
70304;BME280;57712;48.752;11.348;2023-11-21T00:06:21;97039.97;;;7.74;100.00
70304;BME280;57712;48.752;11.348;2023-11-21T00:08:48;97035.91;;;7.86;100.00
70304;BME280;57712;48.752;11.348;2023-11-21T00:11:15;97028.22;;;7.77;100.00
70304;BME280;57712;48.752;11.348;2023-11-21T00:13:42;97036.31;;;7.84;100.00
70304;BME280;57712;48.752;11.348;2023-11-21T00:16:08;97039.47;;;7.82;100.00
70304;BME280;57712;48.752;11.348;2023-11-21T00:18:35;97037.59;;;7.76;100.00
70304;BME280;57712;48.752;11.348;2023-11-21T00:21:02;97044.59;;;7.77;100.00
70304;BME280;57712;48.752;11.348;2023-11-21T00:23:30;97040.69;;;7.78;100.00
70304;BME280;57712;48.752;11.348;2023-11-21T00:25:57;97042.22;;;7.79;100.00
70304;BME280;57712;48.752;11.348;2023-11-21T00:28:25;97032.72;;;7.64;100.00
70304;BME280;57712;48.752;11.348;2023-11-21T00:30:52;97030.13;;;7.80;100.00
70304;BME280;57712;48.752;11.348;2023-11-21T00:33:19;97032.50;;;7.78;100.00
70304;BME280;57712;48.752;11.348;2023-11-21T00:35:46;97029.97;;;7.91;100.00
70304;BME280;57712;48.752;11.348;2023-11-21T00:38:13;97037.19;;;7.77;100.00
70304;BME280;57712;48.752;11.348;2023-11-21T00:40:39;97031.06;;;7.70;100.00
70304;BME280;57712;48.752;11.348;2023-11-21T00:43:06;97043.50;;;7.71;100.00
70304;BME280;57712;48.752;11.348;2023-11-21T00:45:33;97031.31;;;7.79;100.00
70304;BME280;57712;48.752;11.348;2023-11-21T00:47:59;97034.41;;;7.81;100.00
70304;BME280;57712;48.752;11.348;2023-11-21T00:50:26;97046.41;;;7.87;100.00
70304;BME280;57712;48.752;11.348;2023-11-21T00:52:53;97035.13;;;7.85;100.00
70304;BME280;57712;48.752;11.348;2023-11-21T00:55:20;97045.56;;;7.90;100.00
70304;BME280;57712;48.752;11.348;2023-11-21T00:57:47;97045.56;;;7.90;100.00
70304;BME280;57712;48.752;11.348;2023-11-21T01:00:14;97042.06;;;7.90;100.00
70304;BME280;57712;48.752;11.348;2023-11-21T01:02:43;97035.50;;;7.87;100.00
70304;BME280;57712;48.752;11.348;2023-11-21T01:05:14;97036.25;;;7.88;100.00
70304;BME280;57712;48.752;11.348;2023-11-21T01:07:41;97033.88;;;7.90;100.00
70304;BME280;57712;48.752;11.348;2023-11-21T01:10:08;97035.38;;;7.94;100.00
70304;BME280;57712;48.752;11.348;2023-11-21T01:12:37;97024.22;;;7.85;100.00
70304;BME280;57712;48.752;11.348;2023-11-21T01:15:05;97027.66;;;7.89;100.00
70304;BME280;57712;48.752;11.348;2023-11-21T01:17:35;97028.91;;;7.85;100.00
70304;BME280;57712;48.752;11.348;2023-11-21T01:20:03;97026.88;;;7.89;100.00
70304;BME280;57712;48.752;11.348;2023-11-21T01:22:33;97029.50;;;7.69;100.00
70304;BME280;57712;48.752;11.348;2023-11-21T01:25:00;97027.09;;;7.74;100.00
70304;BME280;57712;48.752;11.348;2023-11-21T01:27:27;97027.78;;;7.82;100.00
70304;BME280;57712;48.752;11.348;2023-11-21T01:29:54;97021.25;;;7.76;100.00
70304;BME280;57712;48.752;11.348;2023-11-21T01:32:21;97018.03;;;7.81;100.00
70304;BME280;57712;48.752;11.348;2023-11-21T01:34:50;97021.59;;;7.78;100.00
70304;BME280;57712;48.752;11.348;2023-11-21T01:37:17;97028.56;;;7.82;100.00
70304;BME280;57712;48.752;11.348;2023-11-21T01:39:43;97019.19;;;7.84;100.00
70304;BME280;57712;48.752;11.348;2023-11-21T01:42:11;97024.88;;;7.66;100.00
70304;BME280;57712;48.752;11.348;2023-11-21T01:44:39;97025.88;;;7.79;100.00
70304;BME280;57712;48.752;11.348;2023-11-21T01:47:07;97025.41;;;7.84;100.00
70304;BME280;57712;48.752;11.348;2023-11-21T01:49:35;97025.75;;;7.86;100.00
70304;BME280;57712;48.752;11.348;2023-11-21T01:52:03;97020.25;;;7.90;100.00
70304;BME280;57712;48.752;11.348;2023-11-21T01:54:31;97018.72;;;7.89;100.00
70304;BME280;57712;48.752;11.348;2023-11-21T01:57:01;97014.75;;;7.93;100.00
70304;BME280;57712;48.752;11.348;2023-11-21T01:59:34;97016.66;;;7.96;100.00
70304;BME280;57712;48.752;11.348;2023-11-21T02:02:01;97020.91;;;7.97;100.00
70304;BME280;57712;48.752;11.348;2023-11-21T02:04:28;97023.28;;;7.95;100.00
70304;BME280;57712;48.752;11.348;2023-11-21T02:06:54;97014.34;;;7.95;100.00
70304;BME280;57712;48.752;11.348;2023-11-21T02:09:26;97010.69;;;7.78;100.00
70304;BME280;57712;48.752;11.348;2023-11-21T02:11:54;97013.50;;;7.98;100.00
70304;BME280;57712;48.752;11.348;2023-11-21T02:14:25;97011.19;;;7.96;100.00
70304;BME280;57712;48.752;11.348;2023-11-21T02:16:58;97011.56;;;7.98;100.00
70304;BME280;57712;48.752;11.348;2023-11-21T02:19:27;97009.31;;;7.93;100.00
70304;BME280;57712;48.752;11.348;2023-11-21T02:21:57;97008.75;;;8.02;100.00
70304;BME280;57712;48.752;11.348;2023-11-21T02:24:27;97005.25;;;8.01;100.00
70304;BME280;57712;48.752;11.348;2023-11-21T02:26:54;97012.63;;;8.04;100.00
70304;BME280;57712;48.752;11.348;2023-11-21T02:29:21;97015.13;;;7.95;100.00
70304;BME280;57712;48.752;11.348;2023-11-21T02:31:55;97016.66;;;7.96;100.00
70304;BME280;57712;48.752;11.348;2023-11-21T02:34:22;97004.66;;;7.90;100.00
70304;BME280;57712;48.752;11.348;2023-11-21T02:36:49;97009.75;;;7.88;100.00
70304;BME280;57712;48.752;11.348;2023-11-21T02:39:16;97005.81;;;7.93;100.00
70304;BME280;57712;48.752;11.348;2023-11-21T02:41:44;97010.94;;;7.87;100.00
70304;BME280;57712;48.752;11.348;2023-11-21T02:44:11;97005.75;;;7.96;100.00
70304;BME280;57712;48.752;11.348;2023-11-21T02:46:37;97008.94;;;7.91;100.00
70304;BME280;57712;48.752;11.348;2023-11-21T02:49:06;97002.59;;;7.98;100.00
70304;BME280;57712;48.752;11.348;2023-11-21T02:51:33;97000.56;;;8.02;100.00
70304;BME280;57712;48.752;11.348;2023-11-21T02:54:00;96999.47;;;7.99;100.00
70304;BME280;57712;48.752;11.348;2023-11-21T02:56:29;96998.25;;;8.00;100.00
70304;BME280;57712;48.752;11.348;2023-11-21T02:58:56;96999.09;;;7.97;100.00
70304;BME280;57712;48.752;11.348;2023-11-21T03:01:23;97011.91;;;8.00;100.00
70304;BME280;57712;48.752;11.348;2023-11-21T03:03:53;97003.38;;;7.98;100.00
70304;BME280;57712;48.752;11.348;2023-11-21T03:06:22;97004.47;;;8.04;100.00
70304;BME280;57712;48.752;11.348;2023-11-21T03:08:50;97001.47;;;7.95;100.00
70304;BME280;57712;48.752;11.348;2023-11-21T03:11:17;96996.22;;;7.81;100.00
70304;BME280;57712;48.752;11.348;2023-11-21T03:13:44;97000.91;;;7.80;100.00
70304;BME280;57712;48.752;11.348;2023-11-21T03:16:12;97004.31;;;7.88;100.00
70304;BME280;57712;48.752;11.348;2023-11-21T03:18:39;97004.47;;;7.77;100.00
70304;BME280;57712;48.752;11.348;2023-11-21T03:21:07;97000.09;;;7.84;100.00
70304;BME280;57712;48.752;11.348;2023-11-21T03:23:37;97003.47;;;7.91;100.00
70304;BME280;57712;48.752;11.348;2023-11-21T03:26:04;96989.63;;;7.82;100.00
70304;BME280;57712;48.752;11.348;2023-11-21T03:28:30;96992.03;;;7.76;100.00
70304;BME280;57712;48.752;11.348;2023-11-21T03:30:57;96996.63;;;7.79;100.00
70304;BME280;57712;48.752;11.348;2023-11-21T03:33:24;96994.34;;;7.78;100.00
70304;BME280;57712;48.752;11.348;2023-11-21T03:35:52;96991.97;;;7.80;100.00
70304;BME280;57712;48.752;11.348;2023-11-21T03:38:19;96995.78;;;7.86;100.00
70304;BME280;57712;48.752;11.348;2023-11-21T03:40:46;96995.69;;;7.93;100.00
70304;BME280;57712;48.752;11.348;2023-11-21T03:43:14;96999.63;;;7.89;100.00
70304;BME280;57712;48.752;11.348;2023-11-21T03:45:40;96994.53;;;7.91;100.00
70304;BME280;57712;48.752;11.348;2023-11-21T03:48:08;97004.25;;;7.92;100.00
70304;BME280;57712;48.752;11.348;2023-11-21T03:50:35;96999.47;;;7.99;100.00
70304;BME280;57712;48.752;11.348;2023-11-21T03:53:02;96995.97;;;7.99;100.00
70304;BME280;57712;48.752;11.348;2023-11-21T03:55:28;96992.09;;;7.96;100.00
70304;BME280;57712;48.752;11.348;2023-11-21T03:57:58;96994.78;;;8.00;100.00
70304;BME280;57712;48.752;11.348;2023-11-21T04:00:25;96993.22;;;7.99;100.00
70304;BME280;57712;48.752;11.348;2023-11-21T04:02:53;96993.19;;;8.02;100.00
70304;BME280;57712;48.752;11.348;2023-11-21T04:05:21;97000.19;;;8.03;100.00
70304;BME280;57712;48.752;11.348;2023-11-21T04:07:50;97005.66;;;8.03;100.00
70304;BME280;57712;48.752;11.348;2023-11-21T04:10:17;96999.59;;;7.92;100.00
70304;BME280;57712;48.752;11.348;2023-11-21T04:12:44;97006.44;;;8.00;100.00
70304;BME280;57712;48.752;11.348;2023-11-21T04:15:12;96995.91;;;8.02;100.00
70304;BME280;57712;48.752;11.348;2023-11-21T04:17:41;97004.91;;;7.99;100.00
70304;BME280;57712;48.752;11.348;2023-11-21T04:20:09;97001.84;;;7.97;100.00
70304;BME280;57712;48.752;11.348;2023-11-21T04:22:41;97002.66;;;7.94;100.00
70304;BME280;57712;48.752;11.348;2023-11-21T04:25:09;97005.81;;;7.93;100.00
70304;BME280;57712;48.752;11.348;2023-11-21T04:27:39;97012.75;;;7.97;100.00
70304;BME280;57712;48.752;11.348;2023-11-21T04:30:06;97011.91;;;8.00;100.00
70304;BME280;57712;48.752;11.348;2023-11-21T04:32:33;97016.66;;;7.96;100.00
70304;BME280;57712;48.752;11.348;2023-11-21T04:35:00;97004.56;;;7.97;100.00
70304;BME280;57712;48.752;11.348;2023-11-21T04:37:27;97006.44;;;8.00;100.00
70304;BME280;57712;48.752;11.348;2023-11-21T04:39:54;97010.31;;;8.03;100.00
70304;BME280;57712;48.752;11.348;2023-11-21T04:42:21;97008.06;;;7.98;100.00
70304;BME280;57712;48.752;11.348;2023-11-21T04:44:48;97011.13;;;8.00;100.00
70304;BME280;57712;48.752;11.348;2023-11-21T04:47:15;97005.66;;;8.03;100.00
70304;BME280;57712;48.752;11.348;2023-11-21T04:49:42;97001.72;;;8.04;100.00
70304;BME280;57712;48.752;11.348;2023-11-21T04:52:10;97007.19;;;8.04;100.00
70304;BME280;57712;48.752;11.348;2023-11-21T04:54:37;97012.16;;;8.09;100.00
70304;BME280;57712;48.752;11.348;2023-11-21T04:57:03;96996.84;;;7.92;100.00
70304;BME280;57712;48.752;11.348;2023-11-21T04:59:31;97013.41;;;8.05;100.00
70304;BME280;57712;48.752;11.348;2023-11-21T05:01:58;97020.47;;;8.02;100.00
70304;BME280;57712;48.752;11.348;2023-11-21T05:04:26;97022.72;;;8.07;100.00
70304;BME280;57712;48.752;11.348;2023-11-21T05:06:53;97019.28;;;8.03;100.00
70304;BME280;57712;48.752;11.348;2023-11-21T05:09:20;97019.50;;;8.13;100.00
70304;BME280;57712;48.752;11.348;2023-11-21T05:11:48;97024.97;;;8.13;100.00
70304;BME280;57712;48.752;11.348;2023-11-21T05:14:15;97022.81;;;8.00;100.00
70304;BME280;57712;48.752;11.348;2023-11-21T05:16:42;97027.84;;;8.02;100.00
70304;BME280;57712;48.752;11.348;2023-11-21T05:19:09;97021.28;;;7.99;100.00
70304;BME280;57712;48.752;11.348;2023-11-21T05:21:35;97027.09;;;8.01;100.00
70304;BME280;57712;48.752;11.348;2023-11-21T05:24:02;97022.53;;;7.95;100.00
70304;BME280;57712;48.752;11.348;2023-11-21T05:26:29;97022.22;;;7.89;100.00
70304;BME280;57712;48.752;11.348;2023-11-21T05:28:56;97024.50;;;7.91;100.00
70304;BME280;57712;48.752;11.348;2023-11-21T05:31:23;97025.34;;;7.88;100.00
70304;BME280;57712;48.752;11.348;2023-11-21T05:33:49;97029.94;;;7.94;100.00
70304;BME280;57712;48.752;11.348;2023-11-21T05:36:16;97028.69;;;7.99;100.00
70304;BME280;57712;48.752;11.348;2023-11-21T05:38:42;97030.53;;;8.05;100.00
70304;BME280;57712;48.752;11.348;2023-11-21T05:41:09;97028.16;;;8.07;100.00
70304;BME280;57712;48.752;11.348;2023-11-21T05:43:39;97032.19;;;7.99;100.00
70304;BME280;57712;48.752;11.348;2023-11-21T05:46:06;97023.97;;;8.03;100.00
70304;BME280;57712;48.752;11.348;2023-11-21T05:48:33;97038.41;;;8.00;100.00
70304;BME280;57712;48.752;11.348;2023-11-21T05:51:00;97026.03;;;7.95;100.00
70304;BME280;57712;48.752;11.348;2023-11-21T05:53:28;97023.03;;;7.86;100.00
70304;BME280;57712;48.752;11.348;2023-11-21T05:55:54;97037.69;;;7.96;100.00
70304;BME280;57712;48.752;11.348;2023-11-21T05:58:21;97031.47;;;7.95;100.00
70304;BME280;57712;48.752;11.348;2023-11-21T06:00:48;97035.38;;;7.94;100.00
70304;BME280;57712;48.752;11.348;2023-11-21T06:03:15;97044.34;;;7.95;100.00
70304;BME280;57712;48.752;11.348;2023-11-21T06:05:41;97036.00;;;8.05;100.00
70304;BME280;57712;48.752;11.348;2023-11-21T06:08:08;97043.50;;;7.98;100.00
70304;BME280;57712;48.752;11.348;2023-11-21T06:10:35;97041.63;;;7.95;100.00
70304;BME280;57712;48.752;11.348;2023-11-21T06:13:02;97051.63;;;8.01;100.00
70304;BME280;57712;48.752;11.348;2023-11-21T06:15:30;97045.03;;;8.02;100.00
70304;BME280;57712;48.752;11.348;2023-11-21T06:17:57;97040.72;;;8.01;100.00
70304;BME280;57712;48.752;11.348;2023-11-21T06:20:24;97044.63;;;8.00;100.00
70304;BME280;57712;48.752;11.348;2023-11-21T06:22:51;97051.63;;;8.01;100.00
70304;BME280;57712;48.752;11.348;2023-11-21T06:25:18;97050.09;;;8.00;100.00
70304;BME280;57712;48.752;11.348;2023-11-21T06:27:46;97053.97;;;8.03;100.00
70304;BME280;57712;48.752;11.348;2023-11-21T06:30:15;97057.84;;;8.02;100.00
70304;BME280;57712;48.752;11.348;2023-11-21T06:32:42;97054.00;;;7.99;100.00
70304;BME280;57712;48.752;11.348;2023-11-21T06:35:13;97063.38;;;7.98;100.00
70304;BME280;57712;48.752;11.348;2023-11-21T06:37:43;97057.91;;;7.98;100.00
70304;BME280;57712;48.752;11.348;2023-11-21T06:40:17;97053.19;;;8.02;100.00
70304;BME280;57712;48.752;11.348;2023-11-21T06:42:46;97062.66;;;7.94;100.00
70304;BME280;57712;48.752;11.348;2023-11-21T06:45:14;97061.22;;;7.86;100.00
70304;BME280;57712;48.752;11.348;2023-11-21T06:47:41;97073.16;;;7.96;100.00
70304;BME280;57712;48.752;11.348;2023-11-21T06:50:09;97075.47;;;7.97;100.00
70304;BME280;57712;48.752;11.348;2023-11-21T06:52:35;97071.91;;;8.00;100.00
70304;BME280;57712;48.752;11.348;2023-11-21T06:55:02;97078.13;;;8.01;100.00
70304;BME280;57712;48.752;11.348;2023-11-21T06:57:31;97082.19;;;7.89;100.00
70304;BME280;57712;48.752;11.348;2023-11-21T06:59:58;97079.69;;;8.02;100.00
70304;BME280;57712;48.752;11.348;2023-11-21T07:02:24;97086.72;;;7.99;100.00
70304;BME280;57712;48.752;11.348;2023-11-21T07:04:51;97084.69;;;8.07;100.00
70304;BME280;57712;48.752;11.348;2023-11-21T07:07:18;97084.75;;;8.03;100.00
70304;BME280;57712;48.752;11.348;2023-11-21T07:09:46;97092.53;;;8.01;100.00
70304;BME280;57712;48.752;11.348;2023-11-21T07:12:12;97092.94;;;8.03;100.00
70304;BME280;57712;48.752;11.348;2023-11-21T07:14:40;97089.81;;;8.01;100.00
70304;BME280;57712;48.752;11.348;2023-11-21T07:17:09;97087.41;;;8.07;100.00
70304;BME280;57712;48.752;11.348;2023-11-21T07:19:36;97089.09;;;7.97;100.00
70304;BME280;57712;48.752;11.348;2023-11-21T07:22:03;97085.94;;;8.02;100.00
70304;BME280;57712;48.752;11.348;2023-11-21T07:24:30;97089.66;;;8.12;100.00
70304;BME280;57712;48.752;11.348;2023-11-21T07:26:58;97094.47;;;8.04;100.00
70304;BME280;57712;48.752;11.348;2023-11-21T07:29:25;97098.69;;;8.09;100.00
70304;BME280;57712;48.752;11.348;2023-11-21T07:31:53;97099.84;;;8.08;100.00
70304;BME280;57712;48.752;11.348;2023-11-21T07:34:20;97110.63;;;8.19;100.00
70304;BME280;57712;48.752;11.348;2023-11-21T07:36:47;97111.72;;;8.25;100.00
70304;BME280;57712;48.752;11.348;2023-11-21T07:39:14;97114.38;;;8.28;100.00
70304;BME280;57712;48.752;11.348;2023-11-21T07:41:43;97112.75;;;8.34;100.00
70304;BME280;57712;48.752;11.348;2023-11-21T07:44:16;97117.38;;;8.37;100.00
70304;BME280;57712;48.752;11.348;2023-11-21T07:46:44;97114.66;;;8.37;100.00
70304;BME280;57712;48.752;11.348;2023-11-21T07:49:11;97124.44;;;8.35;100.00
70304;BME280;57712;48.752;11.348;2023-11-21T07:51:42;97124.31;;;8.42;100.00
70304;BME280;57712;48.752;11.348;2023-11-21T07:54:09;97114.44;;;8.25;100.00
70304;BME280;57712;48.752;11.348;2023-11-21T07:56:36;97120.47;;;8.39;100.00
70304;BME280;57712;48.752;11.348;2023-11-21T07:59:03;97121.13;;;8.47;100.00
70304;BME280;57712;48.752;11.348;2023-11-21T08:01:30;97122.31;;;8.46;100.00
70304;BME280;57712;48.752;11.348;2023-11-21T08:03:58;97119.63;;;8.43;100.00
70304;BME280;57712;48.752;11.348;2023-11-21T08:06:29;97126.78;;;8.33;100.00
70304;BME280;57712;48.752;11.348;2023-11-21T08:08:57;97130.75;;;8.55;100.00
70304;BME280;57712;48.752;11.348;2023-11-21T08:11:24;97128.63;;;8.66;100.00
70304;BME280;57712;48.752;11.348;2023-11-21T08:13:50;97130.94;;;8.68;100.00
70304;BME280;57712;48.752;11.348;2023-11-21T08:16:17;97126.16;;;8.76;100.00
70304;BME280;57712;48.752;11.348;2023-11-21T08:18:44;97126.50;;;8.78;100.00
70304;BME280;57712;48.752;11.348;2023-11-21T08:21:12;97125.19;;;8.86;100.00
70304;BME280;57712;48.752;11.348;2023-11-21T08:23:39;97125.91;;;8.90;100.00
70304;BME280;57712;48.752;11.348;2023-11-21T08:26:06;97120.44;;;8.90;100.00
70304;BME280;57712;48.752;11.348;2023-11-21T08:28:33;97127.13;;;9.09;100.00
70304;BME280;57712;48.752;11.348;2023-11-21T08:31:01;97123.16;;;8.90;100.00
70304;BME280;57712;48.752;11.348;2023-11-21T08:33:27;97121.72;;;9.05;100.00
70304;BME280;57712;48.752;11.348;2023-11-21T08:35:54;97121.47;;;9.19;100.00
70304;BME280;57712;48.752;11.348;2023-11-21T08:38:21;97119.75;;;9.06;100.00
70304;BME280;57712;48.752;11.348;2023-11-21T08:40:48;97115.56;;;9.01;100.00
70304;BME280;57712;48.752;11.348;2023-11-21T08:43:15;97124.94;;;9.00;100.00
70304;BME280;57712;48.752;11.348;2023-11-21T08:45:42;97128.88;;;8.76;100.00
70304;BME280;57712;48.752;11.348;2023-11-21T08:48:09;97137.34;;;9.05;100.00
70304;BME280;57712;48.752;11.348;2023-11-21T08:50:38;97141.50;;;8.89;100.00
70304;BME280;57712;48.752;11.348;2023-11-21T08:53:04;97137.53;;;8.94;100.00
70304;BME280;57712;48.752;11.348;2023-11-21T08:55:32;97142.44;;;9.03;100.00
70304;BME280;57712;48.752;11.348;2023-11-21T08:58:04;97140.97;;;8.98;100.00
70304;BME280;57712;48.752;11.348;2023-11-21T09:00:32;97141.50;;;8.89;100.00
70304;BME280;57712;48.752;11.348;2023-11-21T09:03:01;97136.94;;;8.83;100.00
70304;BME280;57712;48.752;11.348;2023-11-21T09:05:28;97148.59;;;8.87;100.00
70304;BME280;57712;48.752;11.348;2023-11-21T09:07:55;97139.97;;;8.88;100.00
70304;BME280;57712;48.752;11.348;2023-11-21T09:10:22;97141.59;;;8.86;100.00
70304;BME280;57712;48.752;11.348;2023-11-21T09:12:50;97154.75;;;8.91;100.00
70304;BME280;57712;48.752;11.348;2023-11-21T09:15:18;97159.03;;;8.92;100.00
70304;BME280;57712;48.752;11.348;2023-11-21T09:17:47;97157.72;;;9.00;100.00
70304;BME280;57712;48.752;11.348;2023-11-21T09:20:14;97167.28;;;8.88;100.00
70304;BME280;57712;48.752;11.348;2023-11-21T09:22:41;97167.69;;;9.10;100.00
70304;BME280;57712;48.752;11.348;2023-11-21T09:25:08;97165.25;;;9.16;100.00
70304;BME280;57712;48.752;11.348;2023-11-21T09:27:35;97171.47;;;9.16;100.00
70304;BME280;57712;48.752;11.348;2023-11-21T09:30:05;97180.16;;;9.11;100.00
70304;BME280;57712;48.752;11.348;2023-11-21T09:32:35;97173.75;;;8.98;100.00
70304;BME280;57712;48.752;11.348;2023-11-21T09:35:04;97182.41;;;8.93;100.00
70304;BME280;57712;48.752;11.348;2023-11-21T09:37:31;97181.97;;;8.98;100.00
70304;BME280;57712;48.752;11.348;2023-11-21T09:39:58;97175.47;;;9.12;100.00
70304;BME280;57712;48.752;11.348;2023-11-21T09:42:39;97179.97;;;9.22;100.00
70304;BME280;57712;48.752;11.348;2023-11-21T09:45:27;97183.25;;;9.13;100.00
70304;BME280;57712;48.752;11.348;2023-11-21T09:47:55;97183.34;;;9.06;100.00
70304;BME280;57712;48.752;11.348;2023-11-21T09:50:23;97178.72;;;9.03;100.00
70304;BME280;57712;48.752;11.348;2023-11-21T09:55:37;97188.22;;;8.95;100.00
70304;BME280;57712;48.752;11.348;2023-11-21T09:58:08;97178.91;;;8.92;100.00
70304;BME280;57712;48.752;11.348;2023-11-21T10:00:43;97181.00;;;9.08;100.00
70304;BME280;57712;48.752;11.348;2023-11-21T10:03:11;97181.88;;;9.02;100.00
70304;BME280;57712;48.752;11.348;2023-11-21T10:05:39;97178.50;;;8.94;100.00
70304;BME280;57712;48.752;11.348;2023-11-21T10:08:10;97178.97;;;8.89;100.00
70304;BME280;57712;48.752;11.348;2023-11-21T10:10:38;97174.56;;;8.95;100.00
70304;BME280;57712;48.752;11.348;2023-11-21T10:13:12;97171.63;;;9.09;100.00
70304;BME280;57712;48.752;11.348;2023-11-21T10:15:44;97171.28;;;9.27;100.00
70304;BME280;57712;48.752;11.348;2023-11-21T10:18:16;97164.34;;;9.22;100.00
70304;BME280;57712;48.752;11.348;2023-11-21T10:20:43;97168.44;;;9.54;100.00
70304;BME280;57712;48.752;11.348;2023-11-21T10:23:13;97171.09;;;9.38;100.00
70304;BME280;57712;48.752;11.348;2023-11-21T10:25:42;97168.22;;;9.45;100.00
70304;BME280;57712;48.752;11.348;2023-11-21T10:28:09;97162.13;;;9.57;100.00
70304;BME280;57712;48.752;11.348;2023-11-21T10:30:38;97165.72;;;9.54;100.00
70304;BME280;57712;48.752;11.348;2023-11-21T10:33:06;97167.03;;;9.46;100.00
70304;BME280;57712;48.752;11.348;2023-11-21T10:35:46;97171.13;;;9.77;100.00
70304;BME280;57712;48.752;11.348;2023-11-21T10:38:21;97166.63;;;9.67;100.00
70304;BME280;57712;48.752;11.348;2023-11-21T10:40:50;97167.28;;;9.75;100.00
70304;BME280;57712;48.752;11.348;2023-11-21T10:43:17;97167.34;;;9.71;100.00
70304;BME280;57712;48.752;11.348;2023-11-21T10:45:45;97167.31;;;10.11;100.00
70304;BME280;57712;48.752;11.348;2023-11-21T10:48:13;97169.31;;;9.91;100.00
70304;BME280;57712;48.752;11.348;2023-11-21T10:50:46;97162.66;;;10.08;100.00
70304;BME280;57712;48.752;11.348;2023-11-21T10:53:13;97164.50;;;10.34;100.00
70304;BME280;57712;48.752;11.348;2023-11-21T10:55:41;97162.28;;;10.46;100.00
70304;BME280;57712;48.752;11.348;2023-11-21T10:58:10;97160.22;;;10.50;100.00
70304;BME280;57712;48.752;11.348;2023-11-21T11:00:40;97163.13;;;10.59;100.00
70304;BME280;57712;48.752;11.348;2023-11-21T11:03:07;97159.19;;;10.44;100.00
70304;BME280;57712;48.752;11.348;2023-11-21T11:05:43;97155.63;;;10.63;100.00
70304;BME280;57712;48.752;11.348;2023-11-21T11:08:20;97167.06;;;10.58;100.00
70304;BME280;57712;48.752;11.348;2023-11-21T11:10:54;97159.81;;;10.67;100.00
70304;BME280;57712;48.752;11.348;2023-11-21T11:13:22;97160.59;;;10.68;100.00
70304;BME280;57712;48.752;11.348;2023-11-21T11:15:49;97153.56;;;10.67;100.00
70304;BME280;57712;48.752;11.348;2023-11-21T11:18:17;97163.66;;;10.54;100.00
70304;BME280;57712;48.752;11.348;2023-11-21T11:20:45;97150.16;;;10.63;100.00
70304;BME280;57712;48.752;11.348;2023-11-21T11:28:47;97157.41;;;10.69;100.00
70304;BME280;57712;48.752;11.348;2023-11-21T11:31:44;97161.25;;;10.72;100.00
70304;BME280;57712;48.752;11.348;2023-11-21T11:34:31;97168.44;;;10.33;100.00
70304;BME280;57712;48.752;11.348;2023-11-21T11:37:06;97166.38;;;10.18;100.00
70304;BME280;57712;48.752;11.348;2023-11-21T11:39:38;97165.50;;;10.24;100.00
70304;BME280;57712;48.752;11.348;2023-11-21T11:42:12;97176.22;;;10.15;100.00
70304;BME280;57712;48.752;11.348;2023-11-21T11:44:47;97170.06;;;9.91;100.00
70304;BME280;57712;48.752;11.348;2023-11-21T11:52:41;97165.38;;;9.92;100.00
70304;BME280;57712;48.752;11.348;2023-11-21T11:55:13;97172.22;;;10.00;100.00
70304;BME280;57712;48.752;11.348;2023-11-21T11:57:41;97182.00;;;10.01;100.00
70304;BME280;57712;48.752;11.348;2023-11-21T12:03:00;97180.16;;;10.14;100.00
70304;BME280;57712;48.752;11.348;2023-11-21T12:05:34;97177.25;;;10.21;100.00
70304;BME280;57712;48.752;11.348;2023-11-21T12:08:11;97183.75;;;10.11;100.00
70304;BME280;57712;48.752;11.348;2023-11-21T12:10:38;97175.53;;;10.11;100.00
70304;BME280;57712;48.752;11.348;2023-11-21T12:13:08;97167.16;;;10.18;100.00
70304;BME280;57712;48.752;11.348;2023-11-21T12:15:37;97168.66;;;10.23;100.00
70304;BME280;57712;48.752;11.348;2023-11-21T12:18:06;97168.44;;;10.33;100.00
70304;BME280;57712;48.752;11.348;2023-11-21T12:20:33;97163.78;;;10.30;100.00
70304;BME280;57712;48.752;11.348;2023-11-21T12:23:06;97165.31;;;10.31;100.00
70304;BME280;57712;48.752;11.348;2023-11-21T12:25:33;97168.75;;;10.35;100.00
70304;BME280;57712;48.752;11.348;2023-11-21T12:28:02;97174.44;;;10.45;100.00
70304;BME280;57712;48.752;11.348;2023-11-21T12:30:30;97171.16;;;10.33;100.00
70304;BME280;57712;48.752;11.348;2023-11-21T12:32:59;97172.91;;;10.44;100.00
70304;BME280;57712;48.752;11.348;2023-11-21T12:35:32;97173.03;;;10.36;100.00
70304;BME280;57712;48.752;11.348;2023-11-21T12:38:02;97171.75;;;10.25;100.00
70304;BME280;57712;48.752;11.348;2023-11-21T12:40:29;97181.84;;;10.28;100.00
70304;BME280;57712;48.752;11.348;2023-11-21T12:42:57;97182.03;;;10.17;100.00
70304;BME280;57712;48.752;11.348;2023-11-21T12:45:26;97184.22;;;10.26;100.00
70304;BME280;57712;48.752;11.348;2023-11-21T12:48:00;97184.91;;;10.10;100.00
70304;BME280;57712;48.752;11.348;2023-11-21T12:50:30;97192.09;;;10.04;100.00
70304;BME280;57712;48.752;11.348;2023-11-21T12:53:05;97197.44;;;10.11;100.00
70304;BME280;57712;48.752;11.348;2023-11-21T12:55:35;97193.06;;;10.13;100.00
70304;BME280;57712;48.752;11.348;2023-11-21T12:58:06;97190.56;;;10.03;100.00
70304;BME280;57712;48.752;11.348;2023-11-21T13:00:48;97182.78;;;10.01;100.00
70304;BME280;57712;48.752;11.348;2023-11-21T13:03:16;97185.41;;;10.05;100.00
70304;BME280;57712;48.752;11.348;2023-11-21T13:05:50;97191.59;;;10.09;100.00
70304;BME280;57712;48.752;11.348;2023-11-21T13:08:20;97196.38;;;10.05;100.00
70304;BME280;57712;48.752;11.348;2023-11-21T13:10:50;97199.53;;;10.03;100.00